Airfield :
LOGIN :

Register | Disclaimer

   EN    FR    IT 

 










Legend :    VFR   Marginal VFR   IFR   Intensive IFR   Very Intensive IFR
Visi :
Ceiling :
>= 8 km
>= 3000ft
5 to 8 km
1000 to 3000 ft
1500m to 5 km
500 to 1000 ft
800 to 1500m
200 to 500 ft
< 800m
< 200 ft
Symbols :   Thunderstorms  Fog  Heavy snow  Heavy precipitations  Wind > 20 kt
SIGMETs :     Misc.  Thunderstorms  Icing  Turbulence  Mountain Waves  Volcanic Ashes







- Airport Elevation : 72 ft
- IATA code : UDE


EHVK - Volkel Airbase

CURRENT METAR :
  • 201855Z AUTO 23012KT 5000 -RADZ SCT003 OVC005 10/10 Q1010 YLO

EXPIRED METARs :
  • 201825Z AUTO 23012KT 3400 R24R/P3000U BR BKN004 OVC005 10/10 Q1010 YLO
  • 201755Z AUTO 23012KT 3200 R24R/P3000N BR SCT004 OVC005 10/09 Q1010 YLO
  • 201725Z AUTO 23014KT 200V260 2600 R24R/2300N DZ SCT004 BKN005 OVC006 09/09 Q1010 YLO
  • 201655Z AUTO 23013KT 3000 R24R/2800U BR BKN004 OVC005 09/09 Q1010 YLO
  • 201625Z AUTO 23013KT 3400 R24R/P3000U -SHRA SCT004 OVC005 08/08 Q1010 REDZ YLO
  • 201605Z AUTO 23013KT 200V260 4500 DZ BKN004 OVC005 08/08 Q1011 YLO

TAF TAF EHVK
Valid from the 20 at 18:00 until the 21 at 06:00 UTC


201758Z 2018/2106 23013KT 3200 -DZRA SCT004 BKN006
TEMPO 2018/2021 2500 DZRA SCT004 BKN005
BECMG 2020/2023 26008KT
TEMPO 2021/2105 3500 -DZRA BR BKN003 OVC004
PROB30
TEMPO 2103/2106 4500 BR BKN006 OVC010
No reported NOTAMs for that airfield.



MET'MAP, your aeronautical weather chart ! - Copyright ORBIFLY December 2007 - Disclaimer

ORBIFLY MET'MAP TEAM :

Programming & Development : Alexandra Zaïnal
Concept & Development : Baudouin d'Aumeries
Co-Development & Prog : Marc-Olivier Méhu
Technical & hardware support : Manuel Goepfert

Contact : metmap@orbifly.com




SOURCES & CREDITS :

   NOAA